Time;durP1;ratioP1;P1;durP2;ratioP2;P2;SDS_P1;SDS_P2;PMS_P1;PMS_P2;Temp;Humidity;BMP_temperature;BMP_pressure;BME280_temperature;BME280_humidity;BME280_pressure;Samples;Min_cycle;Max_cycle;Signal;HPM_P1;HPM_P2
2022/03/08 00:00:54;;;;;;;30.83;14.45;;;;;;;-141.50;100.00;63355.56;4969877;28;20101;-76
2022/03/08 00:03:21;;;;;;;28.25;13.35;;;;;;;-141.50;100.00;63355.56;4971559;28;20055;-79
2022/03/08 00:05:48;;;;;;;29.00;13.48;;;;;;;-141.50;100.00;63355.56;4970590;28;20530;-79
2022/03/08 00:08:14;;;;;;;33.08;13.48;;;;;;;-141.50;100.00;63355.56;4970429;28;20411;-78
2022/03/08 00:10:41;;;;;;;31.67;13.02;;;;;;;-141.50;100.00;63355.56;4968760;28;20149;-78
2022/03/08 00:13:08;;;;;;;27.95;13.98;;;;;;;-141.50;100.00;63355.56;4971915;28;20451;-78
2022/03/08 00:15:34;;;;;;;28.45;13.43;;;;;;;-141.50;100.00;63355.56;4970820;28;20150;-77
2022/03/08 00:18:01;;;;;;;27.83;12.45;;;;;;;-141.50;100.00;63355.56;4970625;28;20083;-76
2022/03/08 00:20:28;;;;;;;26.65;12.55;;;;;;;-141.50;100.00;63355.56;4971914;28;20078;-79
2022/03/08 00:22:54;;;;;;;25.77;12.57;;;;;;;-141.50;100.00;63355.56;4969258;28;20458;-78
2022/03/08 00:25:21;;;;;;;29.25;12.88;;;;;;;-141.50;100.00;63355.56;4968917;28;20779;-78
2022/03/08 00:27:47;;;;;;;28.92;13.65;;;;;;;-141.50;100.00;63355.56;4970154;28;20487;-79
2022/03/08 00:30:20;;;;;;;28.13;13.43;;;;;;;-141.50;100.00;63355.56;4970581;28;20096;-79
2022/03/08 00:32:50;;;;;;;25.23;12.88;;;;;;;-141.50;100.00;63355.56;4970842;28;20054;-77
2022/03/08 00:35:18;;;;;;;27.38;13.90;;;;;;;-141.50;100.00;63355.56;4970696;28;20102;-76
2022/03/08 00:37:47;;;;;;;26.02;12.80;;;;;;;-141.50;100.00;63355.56;4985246;28;20443;-78
2022/03/08 00:40:16;;;;;;;27.52;13.68;;;;;;;-141.50;100.00;63355.56;4985085;28;20629;-78
2022/03/08 00:42:42;;;;;;;26.77;13.93;;;;;;;-141.50;100.00;63355.56;4971311;28;20082;-81
2022/03/08 00:45:09;;;;;;;27.15;13.95;;;;;;;-141.50;100.00;63355.56;4971348;28;20047;-77
2022/03/08 00:47:39;;;;;;;32.78;13.85;;;;;;;-141.50;100.00;63355.56;4971880;28;20046;-78
2022/03/08 00:50:08;;;;;;;29.58;13.88;;;;;;;-141.50;100.00;63355.56;4971495;28;20055;-78
2022/03/08 00:52:35;;;;;;;24.05;11.88;;;;;;;-141.50;100.00;63355.56;4970037;28;20047;-77
2022/03/08 00:55:03;;;;;;;26.90;13.55;;;;;;;-141.50;100.00;63355.56;4969678;28;20082;-77
2022/03/08 00:57:29;;;;;;;29.63;14.02;;;;;;;-141.50;100.00;63355.56;4969825;28;20102;-77
2022/03/08 00:59:56;;;;;;;33.03;14.63;;;;;;;-141.50;100.00;63355.56;4971236;28;20388;-78
2022/03/08 01:02:28;;;;;;;29.13;13.93;;;;;;;-141.50;100.00;63355.56;4991198;28;20046;-77
2022/03/08 01:05:01;;;;;;;33.78;14.02;;;;;;;-141.50;100.00;63355.56;4991449;28;20064;-77
2022/03/08 01:07:27;;;;;;;27.77;13.85;;;;;;;-141.50;100.00;63355.56;4990401;28;20070;-77
2022/03/08 01:09:54;;;;;;;27.42;13.90;;;;;;;-141.50;100.00;63355.56;4989924;28;20050;-79
2022/03/08 01:12:20;;;;;;;31.63;14.02;;;;;;;-141.50;100.00;63355.56;4989973;28;20478;-77
2022/03/08 01:14:47;;;;;;;30.42;14.40;;;;;;;-141.50;100.00;63355.56;4989814;28;20046;-76
2022/03/08 01:17:13;;;;;;;34.70;14.35;;;;;;;-141.50;100.00;63355.56;4989660;28;20050;-76
2022/03/08 01:19:40;;;;;;;29.50;14.32;;;;;;;-141.50;100.00;63355.56;4989577;28;20057;-78
2022/03/08 01:22:07;;;;;;;28.77;15.10;;;;;;;-141.50;100.00;63355.56;4992677;28;20054;-79
2022/03/08 01:24:33;;;;;;;25.17;13.40;;;;;;;-141.50;100.00;63355.56;4974010;28;20073;-76
2022/03/08 01:27:00;;;;;;;30.30;13.95;;;;;;;-141.50;100.00;63355.56;4962604;28;20055;-77
2022/03/08 01:29:26;;;;;;;25.70;13.07;;;;;;;-141.50;100.00;63355.56;4975833;28;20673;-77
2022/03/08 01:31:53;;;;;;;31.33;13.30;;;;;;;-141.50;100.00;63355.56;4975044;28;20051;-76
2022/03/08 01:34:19;;;;;;;29.38;14.00;;;;;;;-141.50;100.00;63355.56;4972071;28;20050;-77
2022/03/08 01:36:46;;;;;;;23.65;12.75;;;;;;;-141.50;100.00;63355.56;4972401;28;20047;-78
2022/03/08 01:39:13;;;;;;;29.80;13.45;;;;;;;-141.50;100.00;63355.56;4972548;28;20074;-79
2022/03/08 01:41:40;;;;;;;26.27;12.85;;;;;;;-141.50;100.00;63355.56;4973198;28;20105;-78
2022/03/08 01:44:09;;;;;;;30.58;13.43;;;;;;;-141.50;100.00;63355.56;4973418;28;20495;-78
2022/03/08 01:46:36;;;;;;;28.60;13.75;;;;;;;-141.50;100.00;63355.56;4973651;28;20058;-79
2022/03/08 01:49:04;;;;;;;27.30;13.73;;;;;;;-141.50;100.00;63355.56;4973355;28;20089;-76
2022/03/08 01:51:32;;;;;;;26.92;13.25;;;;;;;-141.50;100.00;63355.56;4973029;28;20560;-78
2022/03/08 01:53:58;;;;;;;28.00;13.35;;;;;;;-141.50;100.00;63355.56;4972676;28;20055;-77
2022/03/08 01:56:25;;;;;;;25.48;12.80;;;;;;;-141.50;100.00;63355.56;4973137;28;20051;-78
2022/03/08 01:58:52;;;;;;;28.52;14.35;;;;;;;-141.50;100.00;63355.56;4973300;28;20433;-77
2022/03/08 02:01:18;;;;;;;31.73;13.43;;;;;;;-141.50;100.00;63355.56;4974812;28;20051;-79
2022/03/08 02:03:45;;;;;;;30.85;14.43;;;;;;;-141.50;100.00;63355.56;4972977;28;20055;-77
2022/03/08 02:06:12;;;;;;;22.77;12.45;;;;;;;-141.50;100.00;63355.56;4973810;28;20746;-78
2022/03/08 02:08:39;;;;;;;28.00;14.18;;;;;;;-141.50;100.00;63355.56;4973648;28;20125;-78
2022/03/08 02:11:05;;;;;;;28.33;14.30;;;;;;;-141.50;100.00;63355.56;4974323;28;20070;-76
2022/03/08 02:13:32;;;;;;;29.00;14.27;;;;;;;-141.50;100.00;63355.56;4975309;28;20443;-77
2022/03/08 02:15:58;;;;;;;35.78;16.10;;;;;;;-141.50;100.00;63355.56;4976216;28;20051;-77
2022/03/08 02:18:26;;;;;;;32.03;15.20;;;;;;;-141.50;100.00;63355.56;4989770;28;20046;-77
2022/03/08 02:20:52;;;;;;;33.88;16.48;;;;;;;-141.50;100.00;63355.56;4974752;28;20447;-76
2022/03/08 02:23:19;;;;;;;36.05;16.20;;;;;;;-141.50;100.00;63355.56;4976199;28;20051;-77
2022/03/08 02:25:45;;;;;;;34.45;16.33;;;;;;;-141.50;100.00;63355.56;4975896;28;20093;-77
2022/03/08 02:28:12;;;;;;;37.67;16.85;;;;;;;-141.50;100.00;63355.56;4976153;28;20101;-76
2022/03/08 02:30:39;;;;;;;37.50;16.05;;;;;;;-141.50;100.00;63355.56;4977263;28;20387;-77
2022/03/08 02:33:07;;;;;;;33.30;16.13;;;;;;;-141.50;100.00;63355.56;4977936;28;20047;-78
2022/03/08 02:35:33;;;;;;;32.20;15.43;;;;;;;-141.50;100.00;63355.56;4975015;28;20141;-80
2022/03/08 02:38:03;;;;;;;32.60;15.48;;;;;;;-141.50;100.00;63355.56;4972661;28;20046;-77
2022/03/08 02:40:36;;;;;;;32.90;15.70;;;;;;;-141.50;100.00;63355.56;4970033;28;20499;-78
2022/03/08 02:43:04;;;;;;;33.85;15.95;;;;;;;-141.50;100.00;63355.56;4972306;28;20047;-78
2022/03/08 02:45:31;;;;;;;32.28;15.38;;;;;;;-141.50;100.00;63355.56;4972763;28;20101;-79
2022/03/08 02:47:58;;;;;;;26.05;13.63;;;;;;;-141.50;100.00;63355.56;4972727;28;20051;-78
2022/03/08 02:50:24;;;;;;;31.30;14.25;;;;;;;-141.50;100.00;63355.56;4972977;28;20117;-79
2022/03/08 02:52:53;;;;;;;27.52;13.68;;;;;;;-141.50;100.00;63355.56;4972382;28;20066;-78
2022/03/08 02:55:24;;;;;;;36.25;15.05;;;;;;;-141.50;100.00;63355.56;4969728;28;20109;-78
2022/03/08 02:57:52;;;;;;;32.88;14.27;;;;;;;-141.50;100.00;63355.56;5008243;28;20086;-81
2022/03/08 03:00:20;;;;;;;32.53;13.73;;;;;;;-141.50;100.00;63355.56;4997883;28;20085;-78
2022/03/08 03:02:47;;;;;;;29.55;13.70;;;;;;;-141.50;100.00;63355.56;4987154;28;20039;-77
2022/03/08 03:05:14;;;;;;;30.00;13.48;;;;;;;-141.50;100.00;63355.56;4973182;28;20051;-78
2022/03/08 03:07:43;;;;;;;28.92;13.73;;;;;;;-141.50;100.00;63355.56;4972866;28;20058;-78
2022/03/08 03:10:15;;;;;;;29.45;13.75;;;;;;;-141.50;100.00;63355.56;4971887;28;20086;-77
2022/03/08 03:12:42;;;;;;;31.40;14.63;;;;;;;-141.50;100.00;63355.56;4974303;28;20039;-77
2022/03/08 03:15:12;;;;;;;31.73;14.15;;;;;;;-141.50;100.00;63355.56;4973341;28;20546;-77
2022/03/08 03:17:39;;;;;;;32.55;14.32;;;;;;;-141.50;100.00;63355.56;4973082;28;20050;-78
2022/03/08 03:20:08;;;;;;;31.40;13.93;;;;;;;-141.50;100.00;63355.56;4973056;28;20070;-78
2022/03/08 03:22:35;;;;;;;33.90;16.00;;;;;;;-141.50;100.00;63355.56;4971393;28;20057;-77
2022/03/08 03:25:03;;;;;;;32.42;14.93;;;;;;;-141.50;100.00;63355.56;4969460;28;20368;-78
2022/03/08 03:27:30;;;;;;;35.53;16.02;;;;;;;-141.50;100.00;63355.56;4971175;28;20047;-77
2022/03/08 03:29:56;;;;;;;32.47;15.30;;;;;;;-141.50;100.00;63355.56;4971018;28;20502;-77
2022/03/08 03:32:23;;;;;;;30.70;15.43;;;;;;;-141.50;100.00;63355.56;4970707;28;20085;-79
2022/03/08 03:34:50;;;;;;;33.58;14.63;;;;;;;-141.50;100.00;63355.56;4970123;28;20047;-78
2022/03/08 03:37:17;;;;;;;35.75;15.85;;;;;;;-141.50;100.00;63355.56;4971612;28;20093;-78
2022/03/08 03:39:44;;;;;;;34.03;15.48;;;;;;;-141.50;100.00;63355.56;4970774;28;20545;-77
2022/03/08 03:42:10;;;;;;;31.52;14.93;;;;;;;-141.50;100.00;63355.56;4972297;28;20054;-79
2022/03/08 03:44:37;;;;;;;33.95;15.70;;;;;;;-141.50;100.00;63355.56;4971825;28;20117;-79
2022/03/08 03:47:04;;;;;;;31.08;15.82;;;;;;;-141.50;100.00;63355.56;4971536;28;20074;-77
2022/03/08 03:49:30;;;;;;;40.40;16.50;;;;;;;-141.50;100.00;63355.56;4971386;28;20179;-76
2022/03/08 03:51:57;;;;;;;33.72;15.63;;;;;;;-141.50;100.00;63355.56;4970448;28;20054;-78
2022/03/08 03:54:24;;;;;;;36.53;15.63;;;;;;;-141.50;100.00;63355.56;4968770;28;20034;-78
2022/03/08 03:56:50;;;;;;;32.35;15.07;;;;;;;-141.50;100.00;63355.56;4971009;28;20465;-77
2022/03/08 03:59:17;;;;;;;36.05;16.40;;;;;;;-141.50;100.00;63355.56;4971230;28;20065;-77
2022/03/08 04:01:43;;;;;;;35.47;16.88;;;;;;;-141.50;100.00;63355.56;4970678;28;20050;-79
2022/03/08 04:04:10;;;;;;;36.33;15.93;;;;;;;-141.50;100.00;63355.56;4986242;28;20049;-78
2022/03/08 04:06:39;;;;;;;33.45;15.60;;;;;;;-141.50;100.00;63355.56;4985262;28;20054;-76
2022/03/08 04:09:06;;;;;;;32.00;15.65;;;;;;;-141.50;100.00;63355.56;4970969;28;20061;-77
2022/03/08 04:11:33;;;;;;;38.63;16.63;;;;;;;-141.50;100.00;63355.56;4969781;28;20050;-77
2022/03/08 04:13:59;;;;;;;35.67;16.45;;;;;;;-141.50;100.00;63355.56;4970840;28;20181;-78
2022/03/08 04:16:26;;;;;;;29.45;14.90;;;;;;;-141.50;100.00;63355.56;4971001;28;20058;-78
2022/03/08 04:18:53;;;;;;;37.25;16.35;;;;;;;-141.50;100.00;63355.56;4970345;28;20050;-78
2022/03/08 04:21:20;;;;;;;33.30;16.17;;;;;;;-141.50;100.00;63355.56;4969457;28;20443;-77
2022/03/08 04:23:47;;;;;;;34.15;16.40;;;;;;;-141.50;100.00;63355.56;4969982;28;20141;-76
2022/03/08 04:26:13;;;;;;;35.92;16.60;;;;;;;-141.50;100.00;63355.56;4984957;28;20098;-77
2022/03/08 04:28:40;;;;;;;38.35;16.83;;;;;;;-141.50;100.00;63355.56;4970350;28;20046;-76
2022/03/08 04:31:06;;;;;;;35.03;16.40;;;;;;;-141.50;100.00;63355.56;4970164;28;20569;-76
2022/03/08 04:33:33;;;;;;;36.63;17.70;;;;;;;-141.50;100.00;63355.56;4969600;28;20106;-77
2022/03/08 04:36:00;;;;;;;42.85;17.50;;;;;;;-141.50;100.00;63355.56;4969927;28;20047;-76
2022/03/08 04:38:27;;;;;;;34.88;16.65;;;;;;;-141.50;100.00;63355.56;4970353;28;20047;-77
2022/03/08 04:40:53;;;;;;;39.65;16.65;;;;;;;-141.50;100.00;63355.56;4967682;28;20101;-76
2022/03/08 04:43:20;;;;;;;34.38;15.93;;;;;;;-141.50;100.00;63355.56;4968031;28;20105;-77
2022/03/08 04:45:46;;;;;;;29.45;15.90;;;;;;;-141.50;100.00;63355.56;4969811;28;20042;-77
2022/03/08 04:48:13;;;;;;;33.38;16.00;;;;;;;-141.50;100.00;63355.56;4968400;28;20054;-76
2022/03/08 04:50:40;;;;;;;35.40;15.77;;;;;;;-141.50;100.00;63355.56;4969323;28;20054;-78
2022/03/08 04:53:06;;;;;;;35.17;15.23;;;;;;;-141.50;100.00;63355.56;4970632;28;20569;-76
2022/03/08 04:55:33;;;;;;;38.00;15.38;;;;;;;-141.50;100.00;63355.56;4967813;28;20147;-78
2022/03/08 04:57:59;;;;;;;35.72;15.70;;;;;;;-141.50;100.00;63355.56;4970330;28;20102;-78
2022/03/08 05:00:26;;;;;;;43.95;17.00;;;;;;;-141.50;100.00;63355.56;4971137;28;20072;-78
2022/03/08 05:02:52;;;;;;;37.22;16.92;;;;;;;-141.50;100.00;63355.56;4973936;28;20054;-78
2022/03/08 05:05:19;;;;;;;39.33;17.08;;;;;;;-141.50;100.00;63355.56;4979766;28;20474;-78
2022/03/08 05:07:45;;;;;;;35.63;16.67;;;;;;;-141.50;100.00;63355.56;4987193;28;20078;-79
2022/03/08 05:10:13;;;;;;;35.63;16.70;;;;;;;-141.50;100.00;63355.56;4986705;28;20105;-76
2022/03/08 05:12:40;;;;;;;38.95;16.75;;;;;;;-141.50;100.00;63355.56;4984364;28;20046;-78
2022/03/08 05:15:08;;;;;;;35.92;16.23;;;;;;;-141.50;100.00;63355.56;4980193;28;20054;-77
2022/03/08 05:17:35;;;;;;;31.45;15.00;;;;;;;-141.50;100.00;63355.56;4974588;28;20043;-78
2022/03/08 05:20:04;;;;;;;34.03;16.05;;;;;;;-141.50;100.00;63355.56;4974013;28;20053;-79
2022/03/08 05:22:30;;;;;;;37.47;16.35;;;;;;;-141.50;100.00;63355.56;4975184;28;20051;-77
2022/03/08 05:24:57;;;;;;;37.17;17.15;;;;;;;-141.50;100.00;63355.56;4970307;28;20054;-78
2022/03/08 05:27:23;;;;;;;37.22;17.30;;;;;;;-141.50;100.00;63355.56;4988245;28;20053;-78
2022/03/08 05:29:50;;;;;;;35.10;17.40;;;;;;;-141.50;100.00;63355.56;4974170;28;20082;-77
2022/03/08 05:32:17;;;;;;;37.80;16.67;;;;;;;-141.50;100.00;63355.56;4973604;28;20054;-78
2022/03/08 05:34:44;;;;;;;41.00;16.48;;;;;;;-141.50;100.00;63355.56;4972808;28;20046;-78
2022/03/08 05:37:11;;;;;;;34.03;16.83;;;;;;;-141.50;100.00;63355.56;4973944;28;20047;-78
2022/03/08 05:39:38;;;;;;;33.40;15.57;;;;;;;-141.50;100.00;63355.56;4972910;28;20507;-79
2022/03/08 05:42:05;;;;;;;34.25;15.50;;;;;;;-141.50;100.00;63355.56;4973861;28;20051;-78
2022/03/08 05:44:32;;;;;;;36.88;16.27;;;;;;;-141.50;100.00;63355.56;4971912;28;20411;-77
2022/03/08 05:46:58;;;;;;;39.97;17.45;;;;;;;-141.50;100.00;63355.56;4972850;28;20097;-78
2022/03/08 05:49:25;;;;;;;45.33;17.95;;;;;;;-141.50;100.00;63355.56;4971857;28;20367;-78
2022/03/08 05:51:52;;;;;;;38.13;17.95;;;;;;;-141.50;100.00;63355.56;4982614;28;20054;-79
2022/03/08 05:54:18;;;;;;;37.33;16.88;;;;;;;-141.50;100.00;63355.56;4958339;28;20480;-79
2022/03/08 05:56:45;;;;;;;32.58;16.60;;;;;;;-141.50;100.00;63355.56;4967360;28;20057;-77
2022/03/08 05:59:12;;;;;;;37.42;16.70;;;;;;;-141.50;100.00;63355.56;4962209;28;20055;-78
2022/03/08 06:01:39;;;;;;;37.85;16.90;;;;;;;-141.50;100.00;63355.56;4952191;29;20059;-78
2022/03/08 06:04:06;;;;;;;34.17;15.85;;;;;;;-141.50;100.00;63355.56;4952441;29;20054;-77
2022/03/08 06:06:33;;;;;;;36.45;16.25;;;;;;;-141.50;100.00;63355.56;4951690;29;20069;-76
2022/03/08 06:09:00;;;;;;;41.58;16.63;;;;;;;-141.50;100.00;63355.56;4953382;28;20369;-76
2022/03/08 06:11:26;;;;;;;46.15;17.95;;;;;;;-141.50;100.00;63355.56;4960491;28;20533;-77
2022/03/08 06:13:53;;;;;;;46.47;19.05;;;;;;;-141.50;100.00;63355.56;4959780;28;20054;-81
2022/03/08 06:16:20;;;;;;;43.75;19.00;;;;;;;-141.50;100.00;63355.56;4959970;28;20054;-77
2022/03/08 06:18:47;;;;;;;66.65;22.67;;;;;;;-141.50;100.00;63355.56;4960726;28;20053;-77
2022/03/08 06:21:13;;;;;;;72.80;24.48;;;;;;;-141.50;100.00;63355.56;4961050;28;20353;-77
2022/03/08 06:23:40;;;;;;;79.85;25.48;;;;;;;-141.50;100.00;63355.56;4984277;28;20043;-80
2022/03/08 06:26:08;;;;;;;68.20;25.60;;;;;;;-141.50;100.00;63355.56;4986338;28;20040;-80
2022/03/08 06:28:35;;;;;;;117.60;34.92;;;;;;;-141.50;100.00;63355.56;4968032;28;20440;-77
2022/03/08 06:31:02;;;;;;;124.00;34.33;;;;;;;-141.50;100.00;63355.56;4958671;28;20043;-78
2022/03/08 06:33:29;;;;;;;153.63;41.70;;;;;;;-141.50;100.00;63355.56;4964455;28;20048;-79
2022/03/08 06:35:55;;;;;;;198.65;48.95;;;;;;;-141.50;100.00;63355.56;4956634;28;20051;-76
2022/03/08 06:38:23;;;;;;;193.57;49.05;;;;;;;-141.50;100.00;63355.56;4954932;28;20388;-78
2022/03/08 06:40:49;;;;;;;221.95;51.95;;;;;;;-141.50;100.00;63355.56;4968472;28;20322;-78
2022/03/08 06:43:16;;;;;;;220.05;55.13;;;;;;;-141.50;100.00;63355.56;4971833;28;20127;-77
2022/03/08 06:45:43;;;;;;;217.63;51.95;;;;;;;-141.50;100.00;63355.56;4970319;28;20530;-78
2022/03/08 06:48:11;;;;;;;205.93;50.45;;;;;;;-141.50;100.00;63355.56;4970069;28;20051;-77
2022/03/08 06:50:37;;;;;;;183.85;46.30;;;;;;;-141.50;100.00;63355.56;4971168;28;20061;-77
2022/03/08 06:53:04;;;;;;;178.38;46.10;;;;;;;-141.50;100.00;63355.56;4970296;28;20472;-77
2022/03/08 06:55:31;;;;;;;186.55;48.15;;;;;;;-141.50;100.00;63355.56;4968656;28;20043;-77
2022/03/08 06:57:58;;;;;;;227.75;52.97;;;;;;;-141.50;100.00;63355.56;4970200;28;20061;-77
2022/03/08 07:00:26;;;;;;;185.75;47.70;;;;;;;-141.50;100.00;63355.56;4966728;28;20059;-79
2022/03/08 07:02:53;;;;;;;196.27;50.88;;;;;;;-141.50;100.00;63355.56;4951063;29;20051;-77
2022/03/08 07:05:19;;;;;;;153.95;41.45;;;;;;;-141.50;100.00;63355.56;4977001;28;20527;-77
2022/03/08 07:07:46;;;;;;;136.65;39.88;;;;;;;-141.50;100.00;63355.56;4969264;28;20046;-78
2022/03/08 07:10:13;;;;;;;120.68;35.95;;;;;;;-141.50;100.00;63355.56;4968822;28;20142;-79
2022/03/08 07:12:40;;;;;;;91.30;31.58;;;;;;;-141.50;100.00;63355.56;4970142;28;20047;-80
2022/03/08 07:15:07;;;;;;;63.35;26.52;;;;;;;-141.50;100.00;63355.56;4970155;28;20039;-78
2022/03/08 07:17:34;;;;;;;59.03;25.63;;;;;;;-141.50;100.00;63355.56;4969724;28;20047;-77
2022/03/08 07:20:02;;;;;;;60.75;25.85;;;;;;;-141.50;100.00;63355.56;4971319;28;20051;-77
2022/03/08 07:22:30;;;;;;;48.50;22.75;;;;;;;-141.50;100.00;63355.56;4969359;28;20129;-77
2022/03/08 07:24:56;;;;;;;53.10;24.13;;;;;;;-141.50;100.00;63355.56;4968230;28;20051;-79
2022/03/08 07:27:23;;;;;;;50.67;22.67;;;;;;;-141.50;100.00;63355.56;4959321;28;20361;-77
2022/03/08 07:29:50;;;;;;;52.33;23.58;;;;;;;-141.50;100.00;63355.56;4950534;28;20059;-77
2022/03/08 07:32:16;;;;;;;51.53;23.75;;;;;;;-141.50;100.00;63355.56;4968881;28;20051;-77
2022/03/08 07:34:43;;;;;;;49.03;22.95;;;;;;;-141.50;100.00;63355.56;4970160;28;20439;-78
2022/03/08 07:37:10;;;;;;;47.90;22.88;;;;;;;-141.50;100.00;63355.56;4968867;28;20050;-77
2022/03/08 07:39:36;;;;;;;51.70;22.92;;;;;;;-141.50;100.00;63355.56;4970545;28;20050;-76
2022/03/08 07:42:03;;;;;;;47.40;22.38;;;;;;;-141.50;100.00;63355.56;4970031;28;20530;-80
2022/03/08 07:44:30;;;;;;;51.20;23.67;;;;;;;-141.50;100.00;63355.56;4971170;28;20051;-78
2022/03/08 07:46:58;;;;;;;52.28;22.50;;;;;;;-141.50;100.00;63355.56;4970374;28;20423;-79
2022/03/08 07:49:25;;;;;;;42.80;21.85;;;;;;;-141.50;100.00;63355.56;4969747;28;20055;-78
2022/03/08 07:51:52;;;;;;;50.28;22.33;;;;;;;-141.50;100.00;63355.56;4971418;28;20149;-78
2022/03/08 07:54:20;;;;;;;47.33;21.20;;;;;;;-141.50;100.00;63355.56;4970625;28;20051;-77
2022/03/08 07:56:47;;;;;;;46.58;21.50;;;;;;;-141.50;100.00;63355.56;4973540;28;20059;-77
2022/03/08 07:59:14;;;;;;;48.92;21.75;;;;;;;-141.50;100.00;63355.56;4972616;28;20062;-77
2022/03/08 08:01:41;;;;;;;43.58;20.60;;;;;;;-141.50;100.00;63355.56;4971551;28;20442;-77
2022/03/08 08:04:08;;;;;;;51.42;21.40;;;;;;;-141.50;100.00;63355.56;4970393;28;20078;-78
2022/03/08 08:06:35;;;;;;;45.03;21.35;;;;;;;-141.50;100.00;63355.56;4967366;28;20055;-76
2022/03/08 08:09:02;;;;;;;37.00;19.30;;;;;;;-141.50;100.00;63355.56;4959406;28;20546;-77
2022/03/08 08:11:29;;;;;;;48.58;20.75;;;;;;;-141.50;100.00;63355.56;4965699;28;20051;-78
2022/03/08 08:13:56;;;;;;;48.60;20.77;;;;;;;-141.50;100.00;63355.56;4970477;28;20510;-77
2022/03/08 08:16:25;;;;;;;42.50;21.17;;;;;;;-141.50;100.00;63355.56;4957703;28;20074;-78
2022/03/08 08:18:52;;;;;;;45.47;20.42;;;;;;;-141.50;100.00;63355.56;4949146;29;20079;-78
2022/03/08 08:21:19;;;;;;;37.08;19.38;;;;;;;-141.50;100.00;63355.56;4948461;29;20893;-79
2022/03/08 08:23:45;;;;;;;37.38;19.73;;;;;;;-141.50;100.00;63355.56;4949924;28;20040;-79
2022/03/08 08:26:12;;;;;;;41.17;18.92;;;;;;;-141.50;100.00;63355.56;4960664;28;20074;-78
2022/03/08 08:28:39;;;;;;;37.67;19.75;;;;;;;-141.50;100.00;63355.56;4970251;28;20050;-78
2022/03/08 08:31:06;;;;;;;36.03;17.88;;;;;;;-141.50;100.00;63355.56;4970150;28;20065;-78
2022/03/08 08:33:33;;;;;;;33.63;17.92;;;;;;;-141.50;100.00;63355.56;4968911;28;20043;-77
2022/03/08 08:36:00;;;;;;;38.30;18.83;;;;;;;-141.50;100.00;63355.56;4968617;28;20066;-78
2022/03/08 08:38:27;;;;;;;35.75;18.65;;;;;;;-141.50;100.00;63355.56;4968460;28;20050;-77
2022/03/08 08:40:54;;;;;;;35.70;17.38;;;;;;;-141.50;100.00;63355.56;4967159;28;20054;-77
2022/03/08 08:43:21;;;;;;;29.50;15.77;;;;;;;-141.50;100.00;63355.56;4969841;28;20117;-77
2022/03/08 08:45:51;;;;;;;31.25;16.83;;;;;;;-141.50;100.00;63355.56;4968309;28;20141;-78
2022/03/08 08:48:20;;;;;;;32.03;16.42;;;;;;;-141.50;100.00;63355.56;4969532;28;20042;-79
2022/03/08 08:50:47;;;;;;;27.60;13.93;;;;;;;-141.50;100.00;63355.56;4969256;28;20421;-78
2022/03/08 08:53:14;;;;;;;28.77;14.35;;;;;;;-141.50;100.00;63355.56;4970309;28;20574;-77
2022/03/08 08:55:40;;;;;;;29.80;15.35;;;;;;;-141.50;100.00;63355.56;4966811;28;20057;-79
2022/03/08 08:58:07;;;;;;;28.90;14.77;;;;;;;-141.50;100.00;63355.56;4971144;28;20061;-79
2022/03/08 09:00:34;;;;;;;34.80;15.35;;;;;;;-141.50;100.00;63355.56;4973567;28;20066;-79
2022/03/08 09:03:02;;;;;;;23.45;13.57;;;;;;;-141.50;100.00;63355.56;4964053;28;20058;-79
2022/03/08 09:05:34;;;;;;;25.88;13.93;;;;;;;-141.50;100.00;63355.56;4951056;29;20443;-79
2022/03/08 09:08:00;;;;;;;23.48;13.20;;;;;;;-141.50;100.00;63355.56;4949715;29;20075;-80
2022/03/08 09:10:27;;;;;;;25.08;14.00;;;;;;;-141.50;100.00;63355.56;4954131;28;20054;-77
2022/03/08 09:12:54;;;;;;;23.08;12.93;;;;;;;-141.50;100.00;63355.56;4968952;28;20039;-78
2022/03/08 09:15:21;;;;;;;26.10;13.77;;;;;;;-141.50;100.00;63355.56;4968385;28;20039;-77
2022/03/08 09:17:49;;;;;;;29.85;15.60;;;;;;;-141.50;100.00;63355.56;4968998;28;20061;-78
2022/03/08 09:20:15;;;;;;;25.60;13.98;;;;;;;-141.50;100.00;63355.56;4968815;28;20539;-79
2022/03/08 09:22:47;;;;;;;32.80;15.45;;;;;;;-141.50;100.00;63355.56;4965178;28;20057;-78
2022/03/08 09:25:14;;;;;;;25.65;14.73;;;;;;;-141.50;100.00;63355.56;4964290;28;20051;-79
2022/03/08 09:27:41;;;;;;;29.98;15.43;;;;;;;-141.50;100.00;63355.56;4968463;28;20086;-78
2022/03/08 09:30:08;;;;;;;29.75;14.57;;;;;;;-141.50;100.00;63355.56;4968490;28;20090;-78
2022/03/08 09:32:35;;;;;;;23.70;14.48;;;;;;;-141.50;100.00;63355.56;4968509;28;20074;-77
2022/03/08 09:35:03;;;;;;;28.48;14.90;;;;;;;-141.50;100.00;63355.56;4968190;28;20186;-78
2022/03/08 09:37:29;;;;;;;24.88;12.25;;;;;;;-141.50;100.00;63355.56;4969380;28;20069;-78
2022/03/08 09:39:56;;;;;;;24.10;11.52;;;;;;;-141.50;100.00;63355.56;4967207;28;20134;-79
2022/03/08 09:42:23;;;;;;;27.70;13.35;;;;;;;-141.50;100.00;63355.56;4969203;28;20061;-78
2022/03/08 09:44:50;;;;;;;25.55;13.88;;;;;;;-141.50;100.00;63355.56;4969578;28;20051;-78
2022/03/08 09:47:18;;;;;;;26.38;13.48;;;;;;;-141.50;100.00;63355.56;4982204;28;20077;-79
2022/03/08 09:49:45;;;;;;;24.73;12.73;;;;;;;-141.50;100.00;63355.56;4969523;28;20055;-78
2022/03/08 09:52:12;;;;;;;24.65;13.77;;;;;;;-141.50;100.00;63355.56;4957453;28;20075;-78
2022/03/08 09:54:42;;;;;;;22.80;12.32;;;;;;;-141.50;100.00;63355.56;4952539;28;20059;-78
2022/03/08 09:57:12;;;;;;;19.60;11.15;;;;;;;-141.50;100.00;63355.56;4952373;29;20055;-79
2022/03/08 09:59:38;;;;;;;22.95;11.98;;;;;;;-141.50;100.00;63355.56;4953336;28;20511;-78
2022/03/08 10:02:05;;;;;;;22.73;12.57;;;;;;;-141.50;100.00;63355.56;4954605;28;20125;-79
2022/03/08 10:04:32;;;;;;;26.67;12.73;;;;;;;-141.50;100.00;63355.56;4973247;28;20129;-78
2022/03/08 10:07:19;;;;;;;22.98;12.20;;;;;;;-141.50;100.00;63355.56;4971147;28;20057;-79
2022/03/08 10:09:57;;;;;;;18.83;10.27;;;;;;;-141.50;100.00;63355.56;4971101;28;20435;-81
2022/03/08 10:12:24;;;;;;;17.85;9.55;;;;;;;-141.50;100.00;63355.56;4973374;28;20047;-78
2022/03/08 10:14:52;;;;;;;20.65;10.40;;;;;;;-141.50;100.00;63355.56;4971485;28;20065;-78
2022/03/08 10:17:40;;;;;;;11.93;6.80;;;;;;;-141.50;100.00;63355.56;4972054;28;20050;-79
2022/03/08 10:20:10;;;;;;;21.92;7.65;;;;;;;-141.50;100.00;63355.56;4973101;28;20055;-78
2022/03/08 10:22:39;;;;;;;11.35;5.25;;;;;;;-141.50;100.00;63355.56;4963866;28;20110;-79
2022/03/08 10:25:15;;;;;;;12.82;6.72;;;;;;;-141.50;100.00;63355.56;4983113;28;20054;-78
2022/03/08 10:27:57;;;;;;;13.05;7.03;;;;;;;-141.50;100.00;63355.56;4967880;28;20129;-77
2022/03/08 10:30:27;;;;;;;13.52;7.38;;;;;;;-141.50;100.00;63355.56;4954527;28;20718;-78
2022/03/08 10:33:03;;;;;;;10.52;5.97;;;;;;;-141.50;100.00;63355.56;4957130;28;20055;-76
2022/03/08 10:35:33;;;;;;;7.90;4.70;;;;;;;-141.50;100.00;63355.56;4954745;28;20047;-76
2022/03/08 10:38:05;;;;;;;7.13;3.70;;;;;;;-141.50;100.00;63355.56;4962081;28;20076;-77
2022/03/08 10:40:35;;;;;;;6.68;4.10;;;;;;;-141.50;100.00;63355.56;4952325;28;20058;-78
2022/03/08 10:43:08;;;;;;;8.57;4.03;;;;;;;-141.50;100.00;63355.56;4958206;28;20051;-77
2022/03/08 10:45:43;;;;;;;9.02;4.72;;;;;;;-141.50;100.00;63355.56;4986060;28;20049;-77
2022/03/08 10:48:13;;;;;;;10.77;5.15;;;;;;;-141.50;100.00;63355.56;4972295;28;20101;-78
2022/03/08 10:50:42;;;;;;;7.07;4.20;;;;;;;-141.50;100.00;63355.56;4969533;28;20146;-77
2022/03/08 10:53:11;;;;;;;9.25;4.55;;;;;;;-141.50;100.00;63355.56;4956176;28;20063;-77
2022/03/08 10:55:45;;;;;;;6.95;4.47;;;;;;;-141.50;100.00;63355.56;4958973;28;20302;-79